Time;durP1;ratioP1;P1;durP2;ratioP2;P2;SDS_P1;SDS_P2;PMS_P1;PMS_P2;Temp;Humidity;BMP_temperature;BMP_pressure;BME280_temperature;BME280_humidity;BME280_pressure;Samples;Min_cycle;Max_cycle;Signal;HPM_P1;HPM_P2
2022/08/24 00:02:06;;;;;;;8.70;4.28;;;25.70;79.50;;;;;;5086566;28;20020;-86
2022/08/24 00:04:32;;;;;;;7.70;4.50;;;25.70;79.10;;;;;;5089227;28;20032;-83
2022/08/24 00:06:59;;;;;;;8.23;5.05;;;25.60;79.20;;;;;;5088391;28;20039;-85
2022/08/24 00:09:24;;;;;;;7.75;4.35;;;25.60;79.50;;;;;;5077646;28;20024;-85
2022/08/24 00:11:50;;;;;;;7.75;4.00;;;25.60;79.70;;;;;;5077770;28;20387;-85
2022/08/24 00:14:16;;;;;;;8.90;5.00;;;25.60;79.90;;;;;;5063726;28;20520;-86
2022/08/24 00:16:41;;;;;;;9.35;5.28;;;25.50;80.00;;;;;;5077657;28;20021;-85
2022/08/24 00:19:07;;;;;;;8.93;5.30;;;25.50;80.10;;;;;;5083080;28;20020;-85
2022/08/24 00:21:33;;;;;;;7.80;5.18;;;25.50;80.30;;;;;;5058465;28;20468;-85
2022/08/24 00:23:58;;;;;;;9.57;5.80;;;25.40;80.50;;;;;;5094315;28;20115;-86
2022/08/24 00:26:24;;;;;;;8.98;5.97;;;25.40;80.80;;;;;;5077517;28;20016;-86
2022/08/24 00:28:50;;;;;;;7.95;5.20;;;25.40;80.90;;;;;;5109922;28;20119;-85
2022/08/24 00:31:16;;;;;;;7.10;5.00;;;25.30;80.90;;;;;;5095723;28;20029;-85
2022/08/24 00:33:42;;;;;;;8.48;5.05;;;25.30;81.10;;;;;;5095332;28;20025;-86
2022/08/24 00:36:08;;;;;;;8.70;4.90;;;25.30;81.20;;;;;;5095053;28;20039;-85
2022/08/24 00:38:37;;;;;;;6.60;4.22;;;25.20;81.30;;;;;;5067473;28;20056;-85
2022/08/24 00:41:03;;;;;;;8.73;4.28;;;25.20;81.40;;;;;;5063189;28;20111;-86
2022/08/24 00:43:29;;;;;;;7.97;4.00;;;25.10;81.30;;;;;;5093778;28;20052;-86
2022/08/24 00:46:21;;;;;;;9.73;4.10;;;25.10;81.40;;;;;;5060383;28;20105;-86
2022/08/24 00:48:54;;;;;;;8.18;4.07;;;25.10;81.40;;;;;;5076481;28;20029;-86
2022/08/24 00:51:26;;;;;;;8.07;3.53;;;25.00;81.40;;;;;;5080474;28;20028;-88
2022/08/24 00:54:09;;;;;;;6.10;3.95;;;25.00;81.70;;;;;;5094773;28;20099;-86
2022/08/24 00:56:40;;;;;;;7.30;3.83;;;24.90;81.90;;;;;;5094584;28;20476;-85
2022/08/24 00:59:16;;;;;;;8.05;3.83;;;24.90;82.00;;;;;;5076746;28;20484;-85
2022/08/24 01:01:43;;;;;;;9.48;3.78;;;24.90;82.30;;;;;;5110419;28;20020;-86
2022/08/24 01:04:14;;;;;;;6.97;4.07;;;24.90;82.50;;;;;;5110196;28;20094;-86
2022/08/24 01:06:40;;;;;;;6.35;3.72;;;24.90;82.70;;;;;;5095011;28;20367;-86
2022/08/24 01:09:06;;;;;;;7.07;3.60;;;24.80;82.70;;;;;;5110403;28;20476;-86
2022/08/24 01:11:33;;;;;;;7.65;4.00;;;24.80;82.80;;;;;;5092799;28;20023;-86
2022/08/24 01:14:01;;;;;;;6.25;4.00;;;24.70;82.70;;;;;;5101632;28;20032;-86
2022/08/24 01:19:33;;;;;;;6.68;3.65;;;24.70;83.00;;;;;;5093559;28;20096;-87
2022/08/24 01:22:23;;;;;;;8.77;4.25;;;24.60;83.20;;;;;;5081373;28;20055;-86
2022/08/24 01:24:49;;;;;;;6.73;4.10;;;24.60;83.30;;;;;;5096815;28;20051;-85
2022/08/24 01:27:16;;;;;;;7.80;4.32;;;24.60;83.50;;;;;;5094242;28;20028;-85
2022/08/24 01:29:44;;;;;;;10.80;5.10;;;24.50;83.60;;;;;;5110007;28;20381;-85
2022/08/24 01:32:17;;;;;;;7.82;5.15;;;24.50;83.80;;;;;;5059784;28;20055;-85
2022/08/24 01:34:43;;;;;;;7.15;4.50;;;24.50;84.00;;;;;;5093846;28;20043;-86
2022/08/24 01:37:10;;;;;;;7.53;4.47;;;24.50;84.20;;;;;;5042809;28;20031;-86
2022/08/24 01:39:45;;;;;;;8.18;4.40;;;24.40;84.20;;;;;;5093983;28;20050;-86
2022/08/24 01:42:12;;;;;;;9.50;4.70;;;24.40;84.30;;;;;;5076191;28;20062;-85
2022/08/24 01:44:39;;;;;;;7.95;4.15;;;24.40;84.40;;;;;;5093272;28;20123;-85
2022/08/24 01:47:07;;;;;;;6.70;4.13;;;24.30;84.60;;;;;;5076045;28;20028;-85
2022/08/24 01:49:37;;;;;;;7.60;4.13;;;24.30;84.80;;;;;;5076000;28;20024;-85
2022/08/24 01:52:05;;;;;;;6.05;4.05;;;24.30;84.90;;;;;;5080615;28;20020;-85
2022/08/24 01:54:31;;;;;;;9.13;4.18;;;24.30;85.00;;;;;;5076830;28;20028;-85
2022/08/24 01:56:58;;;;;;;7.82;4.30;;;24.20;85.20;;;;;;5075941;28;20028;-85
2022/08/24 01:59:24;;;;;;;6.47;4.22;;;24.20;85.30;;;;;;5075727;28;20021;-85
2022/08/24 02:01:55;;;;;;;5.65;3.80;;;24.20;85.50;;;;;;5093502;28;20032;-84
2022/08/24 02:04:22;;;;;;;7.13;3.85;;;24.10;85.70;;;;;;5075520;28;20043;-85
2022/08/24 02:06:48;;;;;;;5.35;3.72;;;24.10;86.00;;;;;;5058564;28;20063;-85
2022/08/24 02:09:14;;;;;;;6.78;4.05;;;24.10;86.20;;;;;;5075957;28;20048;-85
2022/08/24 02:11:40;;;;;;;6.53;4.10;;;24.10;86.40;;;;;;5058807;28;20535;-85
2022/08/24 02:14:06;;;;;;;6.05;3.67;;;24.10;86.40;;;;;;5092790;28;20119;-85
2022/08/24 02:16:32;;;;;;;6.43;3.58;;;24.00;86.40;;;;;;5092347;28;20055;-85
2022/08/24 02:18:58;;;;;;;6.28;4.00;;;24.00;86.50;;;;;;5079053;28;20028;-85
2022/08/24 02:21:24;;;;;;;7.50;4.38;;;24.00;86.50;;;;;;5095316;28;20412;-85
2022/08/24 02:23:51;;;;;;;5.85;3.92;;;23.90;86.40;;;;;;5075256;28;20052;-85
2022/08/24 02:26:17;;;;;;;6.85;4.35;;;23.90;86.50;;;;;;5058848;28;20056;-85
2022/08/24 02:28:43;;;;;;;8.63;4.43;;;23.90;86.60;;;;;;5079365;28;20118;-85
2022/08/24 02:31:10;;;;;;;6.43;4.45;;;23.80;86.80;;;;;;5093613;28;20060;-85
2022/08/24 02:33:37;;;;;;;6.95;4.35;;;23.80;87.00;;;;;;5075783;28;20468;-85
2022/08/24 02:36:04;;;;;;;5.90;4.13;;;23.80;87.70;;;;;;5058440;28;20529;-85
2022/08/24 02:38:30;;;;;;;8.77;4.22;;;23.70;87.20;;;;;;5075767;28;20040;-85
2022/08/24 02:40:56;;;;;;;7.55;4.00;;;23.70;87.40;;;;;;5075841;28;20572;-85
2022/08/24 02:43:23;;;;;;;5.35;4.00;;;23.70;87.70;;;;;;5046194;28;20123;-85
2022/08/24 02:45:49;;;;;;;6.47;4.00;;;23.70;87.90;;;;;;5115983;28;20369;-85
2022/08/24 02:48:16;;;;;;;8.27;4.30;;;23.60;88.00;;;;;;5051086;28;20024;-85
2022/08/24 02:50:45;;;;;;;7.07;4.60;;;23.60;88.20;;;;;;5037756;28;20034;-86
2022/08/24 02:53:13;;;;;;;8.52;4.93;;;23.60;88.30;;;;;;5100690;28;20020;-85
2022/08/24 02:55:40;;;;;;;8.32;5.30;;;23.50;88.30;;;;;;5092963;28;20028;-84
2022/08/24 02:58:07;;;;;;;6.97;4.88;;;23.50;88.50;;;;;;5107692;28;20032;-85
2022/08/24 03:00:35;;;;;;;6.35;4.60;;;23.50;88.80;;;;;;5077157;28;20024;-85
2022/08/24 03:03:01;;;;;;;6.97;4.72;;;23.40;88.80;;;;;;5093528;28;20470;-86
2022/08/24 03:05:27;;;;;;;8.25;5.20;;;23.40;89.00;;;;;;5089646;28;20076;-85
2022/08/24 03:07:53;;;;;;;8.07;4.80;;;23.40;89.00;;;;;;5115307;28;20066;-85
2022/08/24 03:10:19;;;;;;;7.00;4.68;;;23.40;89.20;;;;;;5117767;28;20020;-85
2022/08/24 03:12:45;;;;;;;10.02;5.60;;;23.30;89.40;;;;;;5091476;28;20418;-85
2022/08/24 03:15:11;;;;;;;7.50;5.00;;;23.30;89.60;;;;;;5097270;28;20059;-85
2022/08/24 03:17:38;;;;;;;7.05;5.03;;;23.30;89.80;;;;;;5080778;28;20490;-88
2022/08/24 03:20:09;;;;;;;6.70;4.28;;;23.30;90.00;;;;;;5079997;28;20025;-85
2022/08/24 03:22:36;;;;;;;5.90;4.15;;;23.20;90.00;;;;;;5078494;28;20008;-85
2022/08/24 03:25:03;;;;;;;5.75;4.25;;;23.20;90.30;;;;;;5089166;28;20107;-85
2022/08/24 03:27:28;;;;;;;6.13;4.13;;;23.10;90.00;;;;;;5084894;28;20020;-85
2022/08/24 03:29:54;;;;;;;8.00;4.30;;;23.10;90.10;;;;;;5096545;28;20073;-85
2022/08/24 03:32:20;;;;;;;7.40;4.38;;;23.10;90.20;;;;;;5096055;28;20095;-85
2022/08/24 03:34:46;;;;;;;6.53;4.60;;;23.10;90.30;;;;;;5095722;28;20468;-85
2022/08/24 03:37:11;;;;;;;9.55;4.95;;;23.00;90.30;;;;;;5064162;28;20035;-85
2022/08/24 03:39:37;;;;;;;8.15;4.40;;;22.90;90.40;;;;;;5076290;28;20028;-85
2022/08/24 03:42:04;;;;;;;6.75;4.80;;;22.90;90.50;;;;;;5078794;28;20118;-85
2022/08/24 03:44:29;;;;;;;7.47;4.28;;;22.90;90.60;;;;;;5078760;28;20032;-85
2022/08/24 03:46:55;;;;;;;5.68;3.92;;;22.80;90.60;;;;;;5095328;28;20592;-85
2022/08/24 03:49:21;;;;;;;4.78;3.90;;;22.80;90.70;;;;;;5096118;28;20091;-85
2022/08/24 03:51:48;;;;;;;6.50;4.72;;;22.80;90.80;;;;;;5061397;28;20035;-85
2022/08/24 03:54:14;;;;;;;5.95;4.53;;;22.70;90.80;;;;;;5078482;28;20016;-86
2022/08/24 03:56:41;;;;;;;6.18;4.65;;;22.70;90.90;;;;;;5095283;28;20449;-86
2022/08/24 03:59:09;;;;;;;6.43;4.70;;;22.70;90.90;;;;;;5077970;28;20016;-86
2022/08/24 04:01:35;;;;;;;8.90;5.35;;;22.70;91.00;;;;;;5078877;28;20024;-85
2022/08/24 04:04:01;;;;;;;6.13;5.18;;;22.70;91.10;;;;;;5078039;28;20133;-85
2022/08/24 04:06:27;;;;;;;7.43;4.85;;;22.70;91.20;;;;;;5062203;28;20551;-86
2022/08/24 04:08:54;;;;;;;7.57;4.97;;;22.60;91.30;;;;;;5078906;28;20075;-86
2022/08/24 04:11:23;;;;;;;6.78;4.63;;;22.60;91.30;;;;;;5064221;28;20025;-86
2022/08/24 04:13:51;;;;;;;6.32;4.57;;;22.60;91.40;;;;;;5092245;28;20016;-86
2022/08/24 04:16:19;;;;;;;6.35;4.80;;;22.60;91.50;;;;;;5079310;28;20027;-86
2022/08/24 04:18:45;;;;;;;7.18;5.10;;;22.60;91.60;;;;;;5080121;28;20506;-86
2022/08/24 04:21:15;;;;;;;6.50;5.10;;;22.60;91.60;;;;;;5079583;28;20020;-86
2022/08/24 04:23:49;;;;;;;7.43;4.88;;;22.60;91.70;;;;;;5079722;28;20059;-87
2022/08/24 04:26:16;;;;;;;7.20;4.82;;;22.60;91.80;;;;;;5080155;28;20040;-87
2022/08/24 04:28:42;;;;;;;7.60;5.55;;;22.60;91.90;;;;;;5098831;28;20028;-88
2022/08/24 04:31:08;;;;;;;6.85;4.97;;;22.50;92.00;;;;;;5075185;28;20039;-86
2022/08/24 04:33:33;;;;;;;7.97;5.55;;;22.50;92.20;;;;;;5052131;28;20035;-87
2022/08/24 04:35:59;;;;;;;6.10;5.28;;;22.50;92.30;;;;;;5062656;28;20225;-86
2022/08/24 04:38:25;;;;;;;5.78;5.00;;;22.50;92.40;;;;;;5090302;28;20035;-86
2022/08/24 04:40:51;;;;;;;6.18;4.78;;;22.40;92.50;;;;;;5072386;28;20021;-86
2022/08/24 04:43:17;;;;;;;6.68;5.20;;;22.40;92.60;;;;;;5094236;28;20027;-86
2022/08/24 04:45:45;;;;;;;6.35;4.95;;;22.40;92.70;;;;;;5066226;28;20069;-86
2022/08/24 04:48:11;;;;;;;6.60;4.68;;;22.40;92.70;;;;;;5079608;28;20082;-85
2022/08/24 04:50:41;;;;;;;6.28;4.50;;;22.40;92.80;;;;;;5057758;28;20025;-86
2022/08/24 04:53:08;;;;;;;6.53;4.57;;;22.30;92.70;;;;;;5077333;28;20032;-86
2022/08/24 04:55:42;;;;;;;5.28;4.28;;;22.30;92.80;;;;;;5076671;28;20048;-85
2022/08/24 04:58:08;;;;;;;6.15;4.65;;;22.30;92.80;;;;;;5108234;28;20088;-86
2022/08/24 05:00:34;;;;;;;5.85;4.57;;;22.30;92.80;;;;;;5100605;28;20437;-86
2022/08/24 05:03:00;;;;;;;6.25;4.60;;;22.30;92.90;;;;;;5085816;28;20032;-86
2022/08/24 05:05:25;;;;;;;6.50;4.88;;;22.30;93.00;;;;;;5059854;28;20032;-86
2022/08/24 05:07:51;;;;;;;7.05;4.82;;;22.30;93.00;;;;;;5085614;28;20032;-86
2022/08/24 05:10:17;;;;;;;10.75;5.93;;;22.20;93.10;;;;;;5101417;28;20077;-86
2022/08/24 05:12:43;;;;;;;6.90;5.85;;;22.20;93.20;;;;;;5113961;27;20024;-85
2022/08/24 05:15:10;;;;;;;8.02;6.32;;;22.20;93.20;;;;;;5079653;28;20028;-85
2022/08/24 05:17:36;;;;;;;6.57;5.50;;;22.20;93.30;;;;;;5082880;28;20046;-85
2022/08/24 05:20:02;;;;;;;7.68;6.05;;;22.10;93.40;;;;;;5085111;28;20033;-86
2022/08/24 05:22:28;;;;;;;10.68;5.90;;;22.10;93.50;;;;;;5059593;28;20028;-85
2022/08/24 05:24:53;;;;;;;7.15;5.75;;;22.10;93.60;;;;;;5076732;28;20035;-87
2022/08/24 05:27:19;;;;;;;8.55;6.35;;;22.10;93.60;;;;;;5107675;28;20020;-86
2022/08/24 05:29:45;;;;;;;7.97;6.07;;;22.10;93.80;;;;;;5101632;28;20375;-86
2022/08/24 05:32:11;;;;;;;7.75;6.10;;;22.10;93.90;;;;;;5082756;28;20028;-86
2022/08/24 05:34:37;;;;;;;8.32;6.03;;;22.10;94.00;;;;;;5109592;28;20031;-85
2022/08/24 05:37:03;;;;;;;8.32;6.07;;;22.10;94.10;;;;;;5061338;28;20029;-85
2022/08/24 05:39:30;;;;;;;7.72;5.72;;;22.10;94.20;;;;;;5076514;28;20101;-86
2022/08/24 05:41:55;;;;;;;7.38;5.38;;;22.10;94.30;;;;;;5094010;28;20020;-87
2022/08/24 05:44:22;;;;;;;7.00;5.22;;;22.10;94.40;;;;;;5093338;28;20116;-86
2022/08/24 05:46:48;;;;;;;7.20;5.57;;;22.10;94.50;;;;;;5110700;28;20028;-86
2022/08/24 05:49:13;;;;;;;8.65;5.90;;;22.10;94.60;;;;;;5096580;28;20046;-84
2022/08/24 05:51:41;;;;;;;10.60;6.75;;;22.10;94.80;;;;;;5106153;28;20020;-85
2022/08/24 05:54:07;;;;;;;8.18;6.88;;;22.10;95.00;;;;;;5102455;28;20031;-86
2022/08/24 05:56:36;;;;;;;9.38;6.95;;;22.10;95.20;;;;;;5075709;28;20353;-85
2022/08/24 05:59:02;;;;;;;8.70;7.50;;;22.10;95.40;;;;;;5058838;28;20089;-86
2022/08/24 06:01:31;;;;;;;10.57;8.48;;;22.10;95.50;;;;;;5092615;28;20115;-87
2022/08/24 06:03:58;;;;;;;13.07;9.30;;;22.10;95.80;;;;;;5059603;28;20114;-86
2022/08/24 06:06:25;;;;;;;13.07;10.13;;;22.10;95.90;;;;;;5058955;28;20050;-85
2022/08/24 06:08:54;;;;;;;12.45;9.70;;;22.10;96.00;;;;;;5075634;28;20028;-86
2022/08/24 06:11:31;;;;;;;11.30;10.10;;;22.20;96.10;;;;;;5075468;28;20024;-85
2022/08/24 06:14:01;;;;;;;12.18;10.00;;;22.20;96.20;;;;;;5093351;28;20388;-86
2022/08/24 06:16:27;;;;;;;12.55;11.13;;;22.20;96.30;;;;;;5075425;28;20091;-84
2022/08/24 06:18:53;;;;;;;12.07;10.38;;;22.20;96.40;;;;;;5075242;28;20020;-84
2022/08/24 06:21:22;;;;;;;16.88;10.75;;;22.30;96.50;;;;;;5075288;28;20020;-85
2022/08/24 06:23:49;;;;;;;14.73;10.82;;;22.30;96.60;;;;;;5105954;28;20118;-84
2022/08/24 06:29:03;;;;;;;13.90;11.13;;;22.40;96.70;;;;;;5077938;28;20047;-89
2022/08/24 06:31:28;;;;;;;13.05;11.00;;;22.40;96.80;;;;;;5059479;28;20090;-84
2022/08/24 06:33:54;;;;;;;13.23;11.02;;;22.40;96.80;;;;;;5079504;28;20418;-84
2022/08/24 06:36:21;;;;;;;13.85;10.88;;;22.40;96.90;;;;;;5063762;28;20032;-84
2022/08/24 06:38:47;;;;;;;14.40;10.80;;;22.50;97.00;;;;;;5061519;28;20093;-86
2022/08/24 06:41:13;;;;;;;13.02;10.93;;;22.50;97.10;;;;;;5087523;28;20101;-85
2022/08/24 06:43:38;;;;;;;16.38;11.90;;;22.50;97.10;;;;;;5093325;28;20048;-85
2022/08/24 06:46:05;;;;;;;13.70;11.77;;;22.50;97.20;;;;;;5058316;28;20386;-86
2022/08/24 06:48:31;;;;;;;15.60;14.00;;;22.60;97.30;;;;;;5077326;28;20020;-85
2022/08/24 06:50:57;;;;;;;14.57;12.15;;;22.60;97.40;;;;;;5075503;28;20078;-85
2022/08/24 06:53:24;;;;;;;14.00;12.25;;;22.70;97.50;;;;;;5094333;28;20016;-85
2022/08/24 06:55:57;;;;;;;15.65;10.93;;;22.70;97.50;;;;;;5062032;28;20028;-85
2022/08/24 06:58:25;;;;;;;14.52;12.63;;;22.70;97.50;;;;;;5075930;28;20056;-85
2022/08/24 07:00:50;;;;;;;17.17;12.30;;;22.80;97.70;;;;;;5067906;28;20539;-87
2022/08/24 07:03:16;;;;;;;17.38;12.80;;;22.80;97.70;;;;;;5078237;28;20236;-86
2022/08/24 07:05:53;;;;;;;17.42;13.57;;;22.80;97.70;;;;;;5095802;28;20395;-86
2022/08/24 07:08:19;;;;;;;17.35;13.98;;;22.90;97.80;;;;;;5078555;28;20020;-83
2022/08/24 07:10:45;;;;;;;13.77;12.18;;;22.90;97.80;;;;;;5058714;28;20048;-83
2022/08/24 07:13:13;;;;;;;14.27;12.13;;;23.00;97.80;;;;;;5078500;28;20468;-83
2022/08/24 07:15:39;;;;;;;17.33;12.05;;;23.00;97.80;;;;;;5061868;28;20037;-83
2022/08/24 07:18:08;;;;;;;15.02;12.10;;;23.10;97.80;;;;;;5090829;28;20060;-82
2022/08/24 07:20:35;;;;;;;12.80;11.45;;;23.10;97.80;;;;;;5070087;28;20020;-85
2022/08/24 07:23:01;;;;;;;12.95;10.57;;;23.20;97.80;;;;;;5060245;28;20052;-83
2022/08/24 07:25:30;;;;;;;14.10;12.48;;;23.20;97.80;;;;;;5060408;28;20056;-85
2022/08/24 07:27:56;;;;;;;13.45;11.10;;;23.30;97.80;;;;;;5077477;28;20513;-83
2022/08/24 07:30:21;;;;;;;12.13;10.35;;;23.40;97.70;;;;;;5077946;28;20024;-84
2022/08/24 07:32:47;;;;;;;13.20;10.68;;;23.40;97.60;;;;;;5078036;28;20387;-84
2022/08/24 07:35:13;;;;;;;13.27;11.00;;;23.50;97.60;;;;;;5077882;28;20099;-84
2022/08/24 07:37:38;;;;;;;11.27;9.55;;;23.50;97.60;;;;;;5061164;28;20092;-84
2022/08/24 07:40:05;;;;;;;12.38;9.80;;;23.60;97.50;;;;;;5078267;28;20028;-83
2022/08/24 07:42:30;;;;;;;11.73;10.10;;;23.60;97.50;;;;;;5090578;28;20056;-83
2022/08/24 07:44:56;;;;;;;13.30;10.10;;;23.70;97.40;;;;;;5076133;28;20468;-84
2022/08/24 07:47:22;;;;;;;12.10;9.02;;;23.70;97.40;;;;;;5094258;28;20369;-85
2022/08/24 07:49:48;;;;;;;11.02;8.45;;;23.80;97.30;;;;;;5075634;28;20472;-83
2022/08/24 07:52:14;;;;;;;9.93;8.48;;;23.90;97.30;;;;;;5076367;28;20020;-83
2022/08/24 07:54:39;;;;;;;8.85;7.20;;;23.90;97.20;;;;;;5094335;28;20039;-84
2022/08/24 07:57:06;;;;;;;12.45;8.02;;;24.00;97.20;;;;;;5094070;28;20024;-82
2022/08/24 07:59:32;;;;;;;10.05;7.50;;;24.10;97.20;;;;;;5110481;28;20024;-83
2022/08/24 08:01:58;;;;;;;10.60;7.28;;;24.20;97.20;;;;;;5093413;28;20047;-80
2022/08/24 08:04:24;;;;;;;11.38;7.90;;;24.20;97.10;;;;;;5076323;28;20464;-84
2022/08/24 08:06:51;;;;;;;8.40;6.05;;;24.30;97.10;;;;;;5092448;28;20032;-84
2022/08/24 08:09:18;;;;;;;9.68;7.38;;;24.40;97.00;;;;;;5075608;28;20024;-85
2022/08/24 08:11:44;;;;;;;7.65;5.70;;;24.50;96.90;;;;;;5093185;28;20440;-84
2022/08/24 08:14:10;;;;;;;7.63;5.78;;;24.60;96.80;;;;;;5071688;28;20020;-84
2022/08/24 08:16:37;;;;;;;7.50;5.10;;;24.60;96.70;;;;;;5055374;28;20032;-85
2022/08/24 08:19:04;;;;;;;11.15;6.50;;;24.70;96.70;;;;;;5055391;28;20031;-83
2022/08/24 08:24:14;;;;;;;9.52;5.68;;;24.90;96.30;;;;;;5056610;28;20065;-84
2022/08/24 08:26:40;;;;;;;7.28;5.07;;;25.00;96.00;;;;;;5049518;28;20029;-84
2022/08/24 08:29:07;;;;;;;7.85;4.68;;;25.10;95.70;;;;;;5012421;28;20381;-85
2022/08/24 08:31:33;;;;;;;8.40;4.88;;;25.20;95.30;;;;;;5049932;28;20025;-83
2022/08/24 08:33:58;;;;;;;6.70;4.15;;;25.30;95.10;;;;;;5031046;28;20028;-84
2022/08/24 08:36:24;;;;;;;11.20;4.50;;;25.30;94.80;;;;;;5006589;28;20116;-83
2022/08/24 08:38:50;;;;;;;6.20;4.50;;;25.40;94.60;;;;;;5016455;28;20057;-83
2022/08/24 08:41:18;;;;;;;7.68;4.43;;;25.50;94.50;;;;;;5017286;28;20465;-85
2022/08/24 08:43:51;;;;;;;7.78;4.57;;;25.60;94.40;;;;;;5045086;28;20483;-84
2022/08/24 08:46:44;;;;;;;6.00;4.00;;;25.70;94.20;;;;;;5037927;28;20112;-84
2022/08/24 08:49:52;;;;;;;7.70;4.00;;;25.80;94.10;;;;;;5039518;28;20027;-83
2022/08/24 08:52:45;;;;;;;5.60;3.50;;;25.90;94.00;;;;;;5053985;28;20013;-83
2022/08/24 08:55:31;;;;;;;4.82;2.75;;;26.00;93.80;;;;;;5068079;28;20040;-82
2022/08/24 08:58:17;;;;;;;6.43;3.30;;;26.10;93.60;;;;;;5036330;28;20025;-83
2022/08/24 09:01:09;;;;;;;4.97;2.92;;;26.20;93.50;;;;;;5033133;28;20029;-83
2022/08/24 09:04:09;;;;;;;4.65;2.92;;;26.30;93.30;;;;;;5035268;28;20027;-83
2022/08/24 09:06:50;;;;;;;4.65;2.92;;;26.30;93.10;;;;;;5030436;28;20435;-84
2022/08/24 09:09:48;;;;;;;3.97;2.20;;;26.40;92.90;;;;;;5054056;28;20084;-83
2022/08/24 09:12:16;;;;;;;4.82;2.40;;;26.50;92.60;;;;;;5034966;28;20377;-84
2022/08/24 09:14:47;;;;;;;4.43;2.63;;;26.70;92.50;;;;;;5054101;28;20028;-83
2022/08/24 09:17:32;;;;;;;3.75;2.40;;;26.80;92.20;;;;;;5035927;28;20029;-83
2022/08/24 09:20:14;;;;;;;3.47;2.10;;;26.80;91.80;;;;;;5024275;28;20025;-83
2022/08/24 09:22:46;;;;;;;2.88;1.98;;;26.90;91.60;;;;;;5033658;28;20033;-82
2022/08/24 09:25:22;;;;;;;4.05;1.90;;;27.00;91.30;;;;;;5051397;28;20029;-82
2022/08/24 09:28:14;;;;;;;4.70;2.03;;;27.10;91.00;;;;;;5068252;28;20021;-82
2022/08/24 09:31:18;;;;;;;4.28;1.70;;;27.20;90.50;;;;;;5073422;28;20020;-83
2022/08/24 09:34:07;;;;;;;2.17;1.50;;;27.30;89.80;;;;;;5040952;28;20039;-82
2022/08/24 09:36:35;;;;;;;3.25;1.60;;;27.40;89.60;;;;;;5086808;28;20025;-82
2022/08/24 09:39:06;;;;;;;2.65;1.60;;;27.50;89.20;;;;;;5055610;28;20020;-82
2022/08/24 09:42:05;;;;;;;3.17;1.75;;;27.60;89.10;;;;;;5073132;28;20025;-83
2022/08/24 09:45:01;;;;;;;3.40;1.63;;;27.70;88.60;;;;;;5058900;28;20021;-83
2022/08/24 09:47:26;;;;;;;2.85;1.70;;;27.80;87.80;;;;;;5055228;28;20024;-83
2022/08/24 09:50:07;;;;;;;1.50;1.40;;;27.90;86.50;;;;;;5052464;28;20048;-82
2022/08/24 09:53:14;;;;;;;1.83;1.60;;;27.90;85.50;;;;;;5079194;28;20032;-83
2022/08/24 09:56:18;;;;;;;2.15;1.20;;;28.00;84.90;;;;;;5055317;28;20571;-82
2022/08/24 09:59:06;;;;;;;3.00;1.80;;;28.10;84.80;;;;;;5073193;28;20020;-83
2022/08/24 10:01:56;;;;;;;4.80;1.88;;;28.20;85.00;;;;;;5055020;28;20056;-82
2022/08/24 10:04:35;;;;;;;2.23;1.40;;;28.30;83.70;;;;;;5055104;28;20024;-85
2022/08/24 10:07:14;;;;;;;5.23;2.00;;;28.40;83.30;;;;;;5055122;28;20031;-82
2022/08/24 10:10:09;;;;;;;4.32;1.73;;;28.50;82.70;;;;;;5072730;28;20116;-82
2022/08/24 10:12:49;;;;;;;3.22;1.70;;;28.60;81.60;;;;;;5060993;28;20492;-82
2022/08/24 10:15:47;;;;;;;2.30;1.60;;;28.60;81.50;;;;;;5053439;28;20028;-83
2022/08/24 10:18:43;;;;;;;3.95;1.80;;;28.70;81.00;;;;;;5046237;28;20041;-83
2022/08/24 10:21:22;;;;;;;4.63;2.13;;;28.80;80.70;;;;;;5047115;28;20365;-82
2022/08/24 10:24:00;;;;;;;5.03;1.67;;;28.90;80.30;;;;;;5066508;28;20067;-82
2022/08/24 10:26:28;;;;;;;3.80;1.60;;;29.00;79.80;;;;;;5062500;28;20020;-84
2022/08/24 10:29:31;;;;;;;3.05;1.55;;;29.00;79.40;;;;;;5040842;28;20029;-82
2022/08/24 10:32:06;;;;;;;1.58;1.20;;;29.10;79.30;;;;;;5054940;28;20028;-82
2022/08/24 10:34:56;;;;;;;2.95;1.50;;;29.20;78.60;;;;;;5072622;28;20025;-83
2022/08/24 10:37:30;;;;;;;;;;;29.30;78.90;;;;;;5055203;28;20040;-83
2022/08/24 10:40:14;;;;;;;4.13;1.70;;;29.30;79.10;;;;;;5054357;28;19911;-83
2022/08/24 10:45:42;;;;;;;3.53;1.42;;;29.50;78.30;;;;;;5061050;28;20083;-83
2022/08/24 10:48:25;;;;;;;2.15;1.50;;;29.50;78.10;;;;;;5054341;28;20115;-82
2022/08/24 10:51:29;;;;;;;3.40;1.88;;;29.60;77.30;;;;;;5054719;28;20060;-83
2022/08/24 10:53:55;;;;;;;2.97;1.50;;;29.70;76.40;;;;;;5042795;28;20021;-83
2022/08/24 10:56:53;;;;;;;3.08;1.85;;;29.70;75.60;;;;;;5055284;28;20033;-80
2022/08/24 10:59:19;;;;;;;2.03;1.40;;;29.80;75.70;;;;;;5054655;28;20028;-80
2022/08/24 11:02:28;;;;;;;2.25;1.55;;;29.90;75.60;;;;;;5054432;28;20029;-80
2022/08/24 11:05:20;;;;;;;4.03;1.83;;;30.00;75.70;;;;;;5023907;28;20049;-80
2022/08/24 11:08:04;;;;;;;4.85;1.77;;;30.00;74.70;;;;;;5043340;28;20498;-80
2022/08/24 11:10:37;;;;;;;2.22;1.40;;;30.10;74.10;;;;;;5086510;28;20411;-80
2022/08/24 11:13:20;;;;;;;2.42;1.50;;;30.20;74.20;;;;;;5054644;28;20029;-80
2022/08/24 11:15:53;;;;;;;2.72;1.50;;;30.20;74.00;;;;;;5053243;28;20021;-80
2022/08/24 11:18:19;;;;;;;2.78;1.73;;;30.40;73.70;;;;;;5053630;28;20024;-81
2022/08/24 11:20:47;;;;;;;3.80;2.03;;;30.40;73.20;;;;;;5071161;28;20028;-81
2022/08/24 11:23:23;;;;;;;2.63;1.70;;;30.50;72.30;;;;;;5054254;28;20134;-81
2022/08/24 11:26:12;;;;;;;3.00;1.63;;;30.50;71.60;;;;;;5071856;28;20021;-81
2022/08/24 11:28:47;;;;;;;3.33;1.52;;;30.60;71.70;;;;;;5054513;28;20019;-82
2022/08/24 11:31:28;;;;;;;3.70;1.80;;;30.70;72.20;;;;;;5055035;28;20025;-81
2022/08/24 11:34:13;;;;;;;3.45;1.40;;;30.80;72.50;;;;;;5067243;28;20028;-81
2022/08/24 11:36:39;;;;;;;2.17;1.45;;;30.90;72.70;;;;;;5057993;28;20032;-81
2022/08/24 11:39:18;;;;;;;3.33;1.73;;;30.90;71.90;;;;;;5076032;28;20024;-81
2022/08/24 11:41:54;;;;;;;3.72;1.88;;;30.90;70.90;;;;;;5057925;28;20388;-81
2022/08/24 11:44:41;;;;;;;3.58;2.20;;;31.00;70.40;;;;;;5058000;28;20036;-81
2022/08/24 11:47:38;;;;;;;2.63;1.90;;;31.10;69.20;;;;;;5043555;28;20115;-81
2022/08/24 11:50:34;;;;;;;4.28;2.17;;;31.10;68.40;;;;;;5075914;28;20040;-81
2022/08/24 11:53:45;;;;;;;2.88;2.30;;;31.10;67.60;;;;;;5057776;28;20029;-81
2022/08/24 11:56:29;;;;;;;4.72;1.83;;;31.10;66.70;;;;;;5013591;28;20615;-81
2022/08/24 11:59:09;;;;;;;4.63;2.30;;;31.10;67.10;;;;;;5043795;28;20041;-81
2022/08/24 12:01:50;;;;;;;;;;;31.20;67.10;;;;;;5056887;28;20017;-82
2022/08/24 12:04:46;;;;;;;4.10;2.08;;;31.20;67.00;;;;;;5064709;28;19904;-81
2022/08/24 12:07:36;;;;;;;4.13;1.65;;;31.20;67.10;;;;;;5057422;28;20115;-81
2022/08/24 12:10:22;;;;;;;3.50;1.83;;;31.30;67.10;;;;;;5057035;28;20460;-81
2022/08/24 12:13:02;;;;;;;6.25;1.90;;;31.30;67.20;;;;;;5057272;28;20046;-81
2022/08/24 12:15:58;;;;;;;3.72;2.22;;;31.40;67.60;;;;;;5057155;28;20111;-81
2022/08/24 12:18:48;;;;;;;3.40;1.90;;;31.40;67.20;;;;;;5052494;28;20041;-81
2022/08/24 12:21:17;;;;;;;3.38;1.73;;;31.50;66.90;;;;;;5057385;28;20047;-81
2022/08/24 12:23:47;;;;;;;2.67;1.92;;;31.50;65.90;;;;;;5056663;28;20075;-81
2022/08/24 12:26:44;;;;;;;3.97;1.90;;;31.60;65.10;;;;;;5057465;28;20025;-81
2022/08/24 12:29:30;;;;;;;7.57;2.20;;;31.60;64.80;;;;;;5026401;28;20102;-81
2022/08/24 12:32:05;;;;;;;3.28;1.73;;;31.60;65.50;;;;;;5056897;28;20021;-81
2022/08/24 12:34:39;;;;;;;4.20;1.67;;;31.70;66.00;;;;;;5069550;28;20025;-81
2022/08/24 12:37:07;;;;;;;4.18;1.90;;;31.80;66.00;;;;;;5089593;28;20499;-81
2022/08/24 12:39:39;;;;;;;3.58;1.80;;;31.80;65.80;;;;;;5064597;28;20024;-80
2022/08/24 12:42:14;;;;;;;4.78;2.05;;;31.80;65.90;;;;;;5076593;28;20028;-81
2022/08/24 12:44:57;;;;;;;2.75;1.77;;;31.90;65.70;;;;;;5060638;28;20119;-82
2022/08/24 12:47:49;;;;;;;3.40;1.77;;;31.90;65.70;;;;;;5075863;28;20026;-81
2022/08/24 12:50:34;;;;;;;2.15;1.63;;;32.00;65.80;;;;;;5057262;28;20017;-81
2022/08/24 12:53:48;;;;;;;2.33;1.60;;;32.00;65.80;;;;;;5078511;28;20040;-81
2022/08/24 12:56:24;;;;;;;4.75;1.60;;;32.00;65.60;;;;;;5044544;28;20082;-83
2022/08/24 12:58:58;;;;;;;2.90;1.48;;;32.10;65.40;;;;;;5057209;28;20025;-83
2022/08/24 13:01:28;;;;;;;3.20;1.80;;;32.10;64.90;;;;;;5049284;28;20368;-83
2022/08/24 13:04:14;;;;;;;3.50;1.92;;;32.20;64.50;;;;;;5071090;28;20047;-86
2022/08/24 13:06:42;;;;;;;4.47;1.40;;;32.20;63.80;;;;;;5087985;28;20032;-87
2022/08/24 13:09:25;;;;;;;3.10;1.50;;;32.30;63.70;;;;;;5056898;28;20434;-87
2022/08/24 13:11:50;;;;;;;1.92;1.45;;;32.40;63.80;;;;;;5057065;28;20396;-88
2022/08/24 13:14:19;;;;;;;1.63;1.52;;;32.50;63.70;;;;;;5042499;28;20016;-86
2022/08/24 13:17:09;;;;;;;3.13;1.60;;;32.50;63.60;;;;;;5065352;28;20082;-86
2022/08/24 13:19:40;;;;;;;;;;;32.60;63.00;;;;;;5045872;28;20017;-86
2022/08/24 13:22:09;;;;;;;2.40;1.45;;;32.70;62.80;;;;;;5060682;28;19911;-86
2022/08/24 13:24:36;;;;;;;3.05;1.70;;;32.70;62.80;;;;;;5059368;28;20053;-86